sensor_id;sensor_type;location;lat;lon;timestamp;temperature;humidity
26909;DHT22;14477;51.038;4.588;2023-05-29T00:00:21;17.50;61.80
26909;DHT22;14477;51.038;4.588;2023-05-29T00:02:48;17.40;62.20
26909;DHT22;14477;51.038;4.588;2023-05-29T00:05:14;17.40;62.20
26909;DHT22;14477;51.038;4.588;2023-05-29T00:07:41;17.30;62.30
26909;DHT22;14477;51.038;4.588;2023-05-29T00:10:09;17.30;62.40
26909;DHT22;14477;51.038;4.588;2023-05-29T00:12:36;17.20;62.50
26909;DHT22;14477;51.038;4.588;2023-05-29T00:15:03;17.20;62.60
26909;DHT22;14477;51.038;4.588;2023-05-29T00:17:31;17.20;63.00
26909;DHT22;14477;51.038;4.588;2023-05-29T00:20:01;17.10;62.80
26909;DHT22;14477;51.038;4.588;2023-05-29T00:22:30;17.10;63.30
26909;DHT22;14477;51.038;4.588;2023-05-29T00:24:56;17.00;62.80
26909;DHT22;14477;51.038;4.588;2023-05-29T00:27:22;17.00;63.00
26909;DHT22;14477;51.038;4.588;2023-05-29T00:29:48;16.90;63.60
26909;DHT22;14477;51.038;4.588;2023-05-29T00:32:13;16.90;63.60
26909;DHT22;14477;51.038;4.588;2023-05-29T00:34:39;16.80;63.70
26909;DHT22;14477;51.038;4.588;2023-05-29T00:37:05;16.80;63.80
26909;DHT22;14477;51.038;4.588;2023-05-29T00:39:32;16.70;64.20
26909;DHT22;14477;51.038;4.588;2023-05-29T00:41:58;16.70;64.20
26909;DHT22;14477;51.038;4.588;2023-05-29T00:44:23;16.60;64.10
26909;DHT22;14477;51.038;4.588;2023-05-29T00:46:52;16.50;64.20
26909;DHT22;14477;51.038;4.588;2023-05-29T00:49:19;16.50;64.40
26909;DHT22;14477;51.038;4.588;2023-05-29T00:51:46;16.50;64.60
26909;DHT22;14477;51.038;4.588;2023-05-29T00:54:16;16.40;64.50
26909;DHT22;14477;51.038;4.588;2023-05-29T00:56:43;16.40;65.10
26909;DHT22;14477;51.038;4.588;2023-05-29T00:59:10;16.40;64.80
26909;DHT22;14477;51.038;4.588;2023-05-29T01:01:37;16.30;64.90
26909;DHT22;14477;51.038;4.588;2023-05-29T01:04:05;16.30;65.10
26909;DHT22;14477;51.038;4.588;2023-05-29T01:06:35;16.20;65.80
26909;DHT22;14477;51.038;4.588;2023-05-29T01:09:01;16.20;65.50
26909;DHT22;14477;51.038;4.588;2023-05-29T01:14:43;16.10;65.80
26909;DHT22;14477;51.038;4.588;2023-05-29T01:17:19;16.00;66.70
26909;DHT22;14477;51.038;4.588;2023-05-29T01:20:01;16.00;66.40
26909;DHT22;14477;51.038;4.588;2023-05-29T01:25:11;15.90;66.60
26909;DHT22;14477;51.038;4.588;2023-05-29T01:27:45;15.90;67.10
26909;DHT22;14477;51.038;4.588;2023-05-29T01:30:14;15.90;66.70
26909;DHT22;14477;51.038;4.588;2023-05-29T01:32:41;15.80;67.90
26909;DHT22;14477;51.038;4.588;2023-05-29T01:35:08;15.80;67.10
26909;DHT22;14477;51.038;4.588;2023-05-29T01:37:34;15.80;67.20
26909;DHT22;14477;51.038;4.588;2023-05-29T01:40:00;15.70;67.20
26909;DHT22;14477;51.038;4.588;2023-05-29T01:42:27;15.80;67.50
26909;DHT22;14477;51.038;4.588;2023-05-29T01:44:55;15.70;67.50
26909;DHT22;14477;51.038;4.588;2023-05-29T01:47:22;15.70;67.50
26909;DHT22;14477;51.038;4.588;2023-05-29T01:49:50;15.70;67.20
26909;DHT22;14477;51.038;4.588;2023-05-29T01:52:17;15.70;67.10
26909;DHT22;14477;51.038;4.588;2023-05-29T01:54:44;15.60;66.90
26909;DHT22;14477;51.038;4.588;2023-05-29T01:57:10;15.60;67.20
26909;DHT22;14477;51.038;4.588;2023-05-29T01:59:37;15.50;67.10
26909;DHT22;14477;51.038;4.588;2023-05-29T02:02:07;15.50;67.00
26909;DHT22;14477;51.038;4.588;2023-05-29T02:04:33;15.50;67.40
26909;DHT22;14477;51.038;4.588;2023-05-29T02:06:59;15.40;67.20
26909;DHT22;14477;51.038;4.588;2023-05-29T02:09:25;15.40;67.20
26909;DHT22;14477;51.038;4.588;2023-05-29T02:11:51;15.30;67.20
26909;DHT22;14477;51.038;4.588;2023-05-29T02:14:17;15.20;67.10
26909;DHT22;14477;51.038;4.588;2023-05-29T02:16:44;15.20;67.10
26909;DHT22;14477;51.038;4.588;2023-05-29T02:19:10;15.10;67.00
26909;DHT22;14477;51.038;4.588;2023-05-29T02:21:40;15.10;67.10
26909;DHT22;14477;51.038;4.588;2023-05-29T02:24:06;15.00;67.70
26909;DHT22;14477;51.038;4.588;2023-05-29T02:26:32;15.00;67.20
26909;DHT22;14477;51.038;4.588;2023-05-29T02:28:58;15.00;67.00
26909;DHT22;14477;51.038;4.588;2023-05-29T02:31:24;15.00;67.10
26909;DHT22;14477;51.038;4.588;2023-05-29T02:33:50;14.90;67.00
26909;DHT22;14477;51.038;4.588;2023-05-29T02:36:16;14.90;67.00
26909;DHT22;14477;51.038;4.588;2023-05-29T02:38:42;14.90;67.20
26909;DHT22;14477;51.038;4.588;2023-05-29T02:41:07;14.80;67.00
26909;DHT22;14477;51.038;4.588;2023-05-29T02:43:33;14.80;67.10
26909;DHT22;14477;51.038;4.588;2023-05-29T02:45:59;14.80;67.00
26909;DHT22;14477;51.038;4.588;2023-05-29T02:48:25;14.80;66.80
26909;DHT22;14477;51.038;4.588;2023-05-29T02:50:51;14.80;66.80
26909;DHT22;14477;51.038;4.588;2023-05-29T02:53:17;14.70;66.80
26909;DHT22;14477;51.038;4.588;2023-05-29T02:55:44;14.70;66.80
26909;DHT22;14477;51.038;4.588;2023-05-29T02:58:10;14.60;66.80
26909;DHT22;14477;51.038;4.588;2023-05-29T03:00:37;14.60;66.90
26909;DHT22;14477;51.038;4.588;2023-05-29T03:03:03;14.60;66.90
26909;DHT22;14477;51.038;4.588;2023-05-29T03:05:30;14.50;66.60
26909;DHT22;14477;51.038;4.588;2023-05-29T03:07:56;14.50;66.80
26909;DHT22;14477;51.038;4.588;2023-05-29T03:10:22;14.50;66.70
26909;DHT22;14477;51.038;4.588;2023-05-29T03:12:48;14.50;66.60
26909;DHT22;14477;51.038;4.588;2023-05-29T03:15:14;14.40;66.60
26909;DHT22;14477;51.038;4.588;2023-05-29T03:17:40;14.40;66.60
26909;DHT22;14477;51.038;4.588;2023-05-29T03:20:06;14.40;66.60
26909;DHT22;14477;51.038;4.588;2023-05-29T03:22:36;14.40;66.80
26909;DHT22;14477;51.038;4.588;2023-05-29T03:25:03;14.30;66.80
26909;DHT22;14477;51.038;4.588;2023-05-29T03:27:30;14.30;66.60
26909;DHT22;14477;51.038;4.588;2023-05-29T03:29:56;14.30;66.60
26909;DHT22;14477;51.038;4.588;2023-05-29T03:32:23;14.30;66.60
26909;DHT22;14477;51.038;4.588;2023-05-29T03:34:49;14.20;66.60
26909;DHT22;14477;51.038;4.588;2023-05-29T03:37:16;14.20;66.50
26909;DHT22;14477;51.038;4.588;2023-05-29T03:39:42;14.20;66.60
26909;DHT22;14477;51.038;4.588;2023-05-29T03:42:08;14.10;66.60
26909;DHT22;14477;51.038;4.588;2023-05-29T03:44:34;14.10;66.70
26909;DHT22;14477;51.038;4.588;2023-05-29T03:47:00;14.00;66.60
26909;DHT22;14477;51.038;4.588;2023-05-29T03:49:26;14.00;66.70
26909;DHT22;14477;51.038;4.588;2023-05-29T03:51:52;14.00;67.10
26909;DHT22;14477;51.038;4.588;2023-05-29T03:54:17;13.90;67.00
26909;DHT22;14477;51.038;4.588;2023-05-29T03:56:43;13.90;67.10
26909;DHT22;14477;51.038;4.588;2023-05-29T03:59:09;13.90;67.10
26909;DHT22;14477;51.038;4.588;2023-05-29T04:01:35;13.90;67.20
26909;DHT22;14477;51.038;4.588;2023-05-29T04:04:01;13.80;67.20
26909;DHT22;14477;51.038;4.588;2023-05-29T04:06:27;13.80;67.30
26909;DHT22;14477;51.038;4.588;2023-05-29T04:08:53;13.80;67.30
26909;DHT22;14477;51.038;4.588;2023-05-29T04:11:20;13.80;67.30
26909;DHT22;14477;51.038;4.588;2023-05-29T04:13:47;13.80;67.50
26909;DHT22;14477;51.038;4.588;2023-05-29T04:16:14;13.70;67.30
26909;DHT22;14477;51.038;4.588;2023-05-29T04:18:40;13.80;67.60
26909;DHT22;14477;51.038;4.588;2023-05-29T04:21:06;13.70;67.50
26909;DHT22;14477;51.038;4.588;2023-05-29T04:23:32;13.70;67.50
26909;DHT22;14477;51.038;4.588;2023-05-29T04:25:58;13.70;67.70
26909;DHT22;14477;51.038;4.588;2023-05-29T04:28:26;13.70;67.90
26909;DHT22;14477;51.038;4.588;2023-05-29T04:30:52;13.70;67.80
26909;DHT22;14477;51.038;4.588;2023-05-29T04:33:21;13.70;67.80
26909;DHT22;14477;51.038;4.588;2023-05-29T04:35:49;13.70;68.00
26909;DHT22;14477;51.038;4.588;2023-05-29T04:38:15;13.70;67.80
26909;DHT22;14477;51.038;4.588;2023-05-29T04:40:42;13.70;67.90
26909;DHT22;14477;51.038;4.588;2023-05-29T04:43:10;13.70;67.90
26909;DHT22;14477;51.038;4.588;2023-05-29T04:45:36;13.70;68.00
26909;DHT22;14477;51.038;4.588;2023-05-29T04:48:03;13.70;67.90
26909;DHT22;14477;51.038;4.588;2023-05-29T04:50:29;13.70;68.10
26909;DHT22;14477;51.038;4.588;2023-05-29T04:52:57;13.80;68.10
26909;DHT22;14477;51.038;4.588;2023-05-29T04:55:23;13.80;68.00
26909;DHT22;14477;51.038;4.588;2023-05-29T04:57:49;13.80;68.00
26909;DHT22;14477;51.038;4.588;2023-05-29T05:00:15;13.80;68.00
26909;DHT22;14477;51.038;4.588;2023-05-29T05:02:44;13.80;68.10
26909;DHT22;14477;51.038;4.588;2023-05-29T05:05:10;13.80;68.00
26909;DHT22;14477;51.038;4.588;2023-05-29T05:07:36;13.90;68.10
26909;DHT22;14477;51.038;4.588;2023-05-29T05:10:03;13.90;68.10
26909;DHT22;14477;51.038;4.588;2023-05-29T05:12:29;13.90;68.40
26909;DHT22;14477;51.038;4.588;2023-05-29T05:14:55;13.90;68.40
26909;DHT22;14477;51.038;4.588;2023-05-29T05:17:21;13.90;68.50
26909;DHT22;14477;51.038;4.588;2023-05-29T05:19:47;13.90;68.60
26909;DHT22;14477;51.038;4.588;2023-05-29T05:22:15;13.90;68.80
26909;DHT22;14477;51.038;4.588;2023-05-29T05:24:41;13.90;68.80
26909;DHT22;14477;51.038;4.588;2023-05-29T05:27:07;13.90;68.80
26909;DHT22;14477;51.038;4.588;2023-05-29T05:29:33;13.90;68.90
26909;DHT22;14477;51.038;4.588;2023-05-29T05:31:59;13.90;68.90
26909;DHT22;14477;51.038;4.588;2023-05-29T05:34:25;13.90;68.90
26909;DHT22;14477;51.038;4.588;2023-05-29T05:36:51;13.90;68.80
26909;DHT22;14477;51.038;4.588;2023-05-29T05:39:17;14.00;68.90
26909;DHT22;14477;51.038;4.588;2023-05-29T05:41:43;14.00;69.00
26909;DHT22;14477;51.038;4.588;2023-05-29T05:44:09;14.00;69.00
26909;DHT22;14477;51.038;4.588;2023-05-29T05:46:34;14.10;69.20
26909;DHT22;14477;51.038;4.588;2023-05-29T05:49:00;14.10;69.10
26909;DHT22;14477;51.038;4.588;2023-05-29T05:51:26;14.10;69.00
26909;DHT22;14477;51.038;4.588;2023-05-29T05:53:52;14.20;69.10
26909;DHT22;14477;51.038;4.588;2023-05-29T05:56:18;14.20;69.10
26909;DHT22;14477;51.038;4.588;2023-05-29T05:58:44;14.20;69.00
26909;DHT22;14477;51.038;4.588;2023-05-29T06:01:10;14.20;69.10
26909;DHT22;14477;51.038;4.588;2023-05-29T06:03:36;14.30;69.20
26909;DHT22;14477;51.038;4.588;2023-05-29T06:06:03;14.30;69.20
26909;DHT22;14477;51.038;4.588;2023-05-29T06:08:29;14.40;69.20
26909;DHT22;14477;51.038;4.588;2023-05-29T06:10:56;14.50;69.20
26909;DHT22;14477;51.038;4.588;2023-05-29T06:13:21;14.50;69.10
26909;DHT22;14477;51.038;4.588;2023-05-29T06:15:47;14.50;69.10
26909;DHT22;14477;51.038;4.588;2023-05-29T06:18:13;14.60;69.20
26909;DHT22;14477;51.038;4.588;2023-05-29T06:20:40;14.70;69.10
26909;DHT22;14477;51.038;4.588;2023-05-29T06:23:06;14.70;69.00
26909;DHT22;14477;51.038;4.588;2023-05-29T06:25:32;14.80;69.10
26909;DHT22;14477;51.038;4.588;2023-05-29T06:28:01;14.80;69.10
26909;DHT22;14477;51.038;4.588;2023-05-29T06:30:28;14.80;69.00
26909;DHT22;14477;51.038;4.588;2023-05-29T06:32:54;14.90;69.00
26909;DHT22;14477;51.038;4.588;2023-05-29T06:35:20;14.90;68.90
26909;DHT22;14477;51.038;4.588;2023-05-29T06:37:46;15.00;68.80
26909;DHT22;14477;51.038;4.588;2023-05-29T06:40:13;15.00;68.80
26909;DHT22;14477;51.038;4.588;2023-05-29T06:42:39;15.10;68.80
26909;DHT22;14477;51.038;4.588;2023-05-29T06:45:05;15.10;68.80
26909;DHT22;14477;51.038;4.588;2023-05-29T06:47:32;15.20;68.80
26909;DHT22;14477;51.038;4.588;2023-05-29T06:49:58;15.30;68.90
26909;DHT22;14477;51.038;4.588;2023-05-29T06:52:24;15.40;68.80
26909;DHT22;14477;51.038;4.588;2023-05-29T06:54:50;15.50;68.70
26909;DHT22;14477;51.038;4.588;2023-05-29T06:57:16;15.60;68.60
26909;DHT22;14477;51.038;4.588;2023-05-29T06:59:42;15.60;68.60
26909;DHT22;14477;51.038;4.588;2023-05-29T07:02:08;15.70;68.40
26909;DHT22;14477;51.038;4.588;2023-05-29T07:04:33;15.80;68.30
26909;DHT22;14477;51.038;4.588;2023-05-29T07:06:59;15.80;68.20
26909;DHT22;14477;51.038;4.588;2023-05-29T07:09:25;15.90;68.10
26909;DHT22;14477;51.038;4.588;2023-05-29T07:11:53;16.00;68.00
26909;DHT22;14477;51.038;4.588;2023-05-29T07:14:18;16.00;67.90
26909;DHT22;14477;51.038;4.588;2023-05-29T07:16:45;16.10;68.60
26909;DHT22;14477;51.038;4.588;2023-05-29T07:19:10;16.10;67.70
26909;DHT22;14477;51.038;4.588;2023-05-29T07:21:39;16.20;67.70
26909;DHT22;14477;51.038;4.588;2023-05-29T07:24:05;16.20;67.70
26909;DHT22;14477;51.038;4.588;2023-05-29T07:26:31;16.30;67.80
26909;DHT22;14477;51.038;4.588;2023-05-29T07:28:58;16.40;67.80
26909;DHT22;14477;51.038;4.588;2023-05-29T07:31:23;16.50;67.80
26909;DHT22;14477;51.038;4.588;2023-05-29T07:33:50;16.50;67.70
26909;DHT22;14477;51.038;4.588;2023-05-29T07:36:16;16.60;67.70
26909;DHT22;14477;51.038;4.588;2023-05-29T07:38:43;16.70;67.70
26909;DHT22;14477;51.038;4.588;2023-05-29T07:41:09;16.80;67.80
26909;DHT22;14477;51.038;4.588;2023-05-29T07:43:35;16.90;67.80
26909;DHT22;14477;51.038;4.588;2023-05-29T07:46:00;17.00;67.90
26909;DHT22;14477;51.038;4.588;2023-05-29T07:48:26;17.20;67.90
26909;DHT22;14477;51.038;4.588;2023-05-29T07:50:52;17.30;67.60
26909;DHT22;14477;51.038;4.588;2023-05-29T07:53:18;17.40;67.10
26909;DHT22;14477;51.038;4.588;2023-05-29T07:55:44;17.50;67.40
26909;DHT22;14477;51.038;4.588;2023-05-29T07:58:10;17.60;67.60
26909;DHT22;14477;51.038;4.588;2023-05-29T08:00:37;17.80;68.10
26909;DHT22;14477;51.038;4.588;2023-05-29T08:03:04;18.00;68.80
26909;DHT22;14477;51.038;4.588;2023-05-29T08:05:31;18.20;69.10
26909;DHT22;14477;51.038;4.588;2023-05-29T08:07:59;18.60;69.60
26909;DHT22;14477;51.038;4.588;2023-05-29T08:10:25;19.00;69.70
26909;DHT22;14477;51.038;4.588;2023-05-29T08:12:51;19.30;68.80
26909;DHT22;14477;51.038;4.588;2023-05-29T08:15:18;19.70;68.20
26909;DHT22;14477;51.038;4.588;2023-05-29T08:17:44;20.00;67.80
26909;DHT22;14477;51.038;4.588;2023-05-29T08:20:10;20.40;67.60
26909;DHT22;14477;51.038;4.588;2023-05-29T08:22:36;20.70;67.20
26909;DHT22;14477;51.038;4.588;2023-05-29T08:25:02;21.00;67.00
26909;DHT22;14477;51.038;4.588;2023-05-29T08:27:28;21.30;66.70
26909;DHT22;14477;51.038;4.588;2023-05-29T08:29:54;21.60;66.60
26909;DHT22;14477;51.038;4.588;2023-05-29T08:32:20;21.90;66.10
26909;DHT22;14477;51.038;4.588;2023-05-29T08:34:47;22.20;65.20
26909;DHT22;14477;51.038;4.588;2023-05-29T08:37:13;22.50;64.20
26909;DHT22;14477;51.038;4.588;2023-05-29T08:39:39;22.70;62.90
26909;DHT22;14477;51.038;4.588;2023-05-29T08:42:13;22.90;62.50
26909;DHT22;14477;51.038;4.588;2023-05-29T08:44:40;23.10;61.50
26909;DHT22;14477;51.038;4.588;2023-05-29T08:47:07;23.20;61.70
26909;DHT22;14477;51.038;4.588;2023-05-29T08:59:51;23.60;57.30
26909;DHT22;14477;51.038;4.588;2023-05-29T09:02:17;23.60;56.40
26909;DHT22;14477;51.038;4.588;2023-05-29T09:04:43;23.60;57.00
26909;DHT22;14477;51.038;4.588;2023-05-29T09:07:12;23.60;56.90
26909;DHT22;14477;51.038;4.588;2023-05-29T09:09:38;23.60;57.50
26909;DHT22;14477;51.038;4.588;2023-05-29T09:12:04;23.70;56.10
26909;DHT22;14477;51.038;4.588;2023-05-29T09:14:38;23.70;56.50
26909;DHT22;14477;51.038;4.588;2023-05-29T09:17:05;23.80;56.40
26909;DHT22;14477;51.038;4.588;2023-05-29T09:19:32;23.90;56.40
26909;DHT22;14477;51.038;4.588;2023-05-29T09:22:12;24.00;56.20
26909;DHT22;14477;51.038;4.588;2023-05-29T09:24:42;24.10;55.20
26909;DHT22;14477;51.038;4.588;2023-05-29T09:33:03;24.60;54.70
26909;DHT22;14477;51.038;4.588;2023-05-29T09:35:47;24.70;56.40
26909;DHT22;14477;51.038;4.588;2023-05-29T09:38:15;25.00;53.80
26909;DHT22;14477;51.038;4.588;2023-05-29T09:58:15;26.20;51.90
26909;DHT22;14477;51.038;4.588;2023-05-29T10:00:42;26.30;52.60
26909;DHT22;14477;51.038;4.588;2023-05-29T10:03:12;26.40;52.00
26909;DHT22;14477;51.038;4.588;2023-05-29T10:05:42;26.40;51.50
26909;DHT22;14477;51.038;4.588;2023-05-29T10:08:12;26.40;50.70
26909;DHT22;14477;51.038;4.588;2023-05-29T10:11:10;26.50;50.40
26909;DHT22;14477;51.038;4.588;2023-05-29T10:13:42;26.50;50.10
26909;DHT22;14477;51.038;4.588;2023-05-29T10:16:14;26.70;51.40
26909;DHT22;14477;51.038;4.588;2023-05-29T10:18:43;26.90;50.00
26909;DHT22;14477;51.038;4.588;2023-05-29T10:21:12;27.00;49.20
26909;DHT22;14477;51.038;4.588;2023-05-29T10:23:38;27.00;48.80
26909;DHT22;14477;51.038;4.588;2023-05-29T10:26:19;27.10;48.90
26909;DHT22;14477;51.038;4.588;2023-05-29T10:31:28;27.20;48.80
26909;DHT22;14477;51.038;4.588;2023-05-29T10:34:32;27.30;48.40
26909;DHT22;14477;51.038;4.588;2023-05-29T10:37:08;27.30;48.60
26909;DHT22;14477;51.038;4.588;2023-05-29T10:39:36;27.40;48.10
26909;DHT22;14477;51.038;4.588;2023-05-29T10:42:02;27.40;47.80
26909;DHT22;14477;51.038;4.588;2023-05-29T10:49:24;27.70;48.00
26909;DHT22;14477;51.038;4.588;2023-05-29T10:51:51;27.80;47.70
26909;DHT22;14477;51.038;4.588;2023-05-29T10:54:21;27.90;47.90
26909;DHT22;14477;51.038;4.588;2023-05-29T10:57:00;28.00;47.10
26909;DHT22;14477;51.038;4.588;2023-05-29T10:59:26;28.10;46.70
26909;DHT22;14477;51.038;4.588;2023-05-29T11:01:54;28.10;46.80
26909;DHT22;14477;51.038;4.588;2023-05-29T11:04:25;28.20;46.60
26909;DHT22;14477;51.038;4.588;2023-05-29T11:06:57;28.30;46.50
26909;DHT22;14477;51.038;4.588;2023-05-29T11:14:52;28.70;45.40
26909;DHT22;14477;51.038;4.588;2023-05-29T11:20:28;28.90;44.10
26909;DHT22;14477;51.038;4.588;2023-05-29T11:25:25;28.80;43.40
26909;DHT22;14477;51.038;4.588;2023-05-29T11:27:50;28.70;44.40
26909;DHT22;14477;51.038;4.588;2023-05-29T11:30:21;28.70;44.80
26909;DHT22;14477;51.038;4.588;2023-05-29T11:32:48;28.70;44.60
26909;DHT22;14477;51.038;4.588;2023-05-29T11:35:14;28.80;44.10
26909;DHT22;14477;51.038;4.588;2023-05-29T11:37:42;28.80;44.00
26909;DHT22;14477;51.038;4.588;2023-05-29T11:40:13;28.80;43.80
26909;DHT22;14477;51.038;4.588;2023-05-29T11:42:43;28.80;43.80
26909;DHT22;14477;51.038;4.588;2023-05-29T11:45:21;28.80;43.40
26909;DHT22;14477;51.038;4.588;2023-05-29T11:47:54;28.80;42.90
26909;DHT22;14477;51.038;4.588;2023-05-29T11:50:25;28.80;43.30
26909;DHT22;14477;51.038;4.588;2023-05-29T11:52:51;28.80;43.60
26909;DHT22;14477;51.038;4.588;2023-05-29T11:55:21;28.90;43.70
26909;DHT22;14477;51.038;4.588;2023-05-29T11:57:51;29.00;43.10
26909;DHT22;14477;51.038;4.588;2023-05-29T12:00:18;29.00;42.60
26909;DHT22;14477;51.038;4.588;2023-05-29T12:02:45;29.00;42.70
26909;DHT22;14477;51.038;4.588;2023-05-29T12:05:16;29.10;43.10
26909;DHT22;14477;51.038;4.588;2023-05-29T12:07:52;29.10;42.90
26909;DHT22;14477;51.038;4.588;2023-05-29T12:10:19;29.10;42.00
26909;DHT22;14477;51.038;4.588;2023-05-29T12:15:18;29.10;41.90
26909;DHT22;14477;51.038;4.588;2023-05-29T12:17:45;29.10;42.60
26909;DHT22;14477;51.038;4.588;2023-05-29T12:20:15;29.10;43.10
26909;DHT22;14477;51.038;4.588;2023-05-29T12:22:44;29.10;42.30
26909;DHT22;14477;51.038;4.588;2023-05-29T12:25:11;29.10;41.90
26909;DHT22;14477;51.038;4.588;2023-05-29T12:27:38;29.00;42.10
26909;DHT22;14477;51.038;4.588;2023-05-29T12:30:21;28.90;41.50
26909;DHT22;14477;51.038;4.588;2023-05-29T12:32:48;28.80;41.70
26909;DHT22;14477;51.038;4.588;2023-05-29T12:35:22;28.70;41.50
26909;DHT22;14477;51.038;4.588;2023-05-29T12:37:59;28.60;41.30
26909;DHT22;14477;51.038;4.588;2023-05-29T12:40:26;28.60;41.30
26909;DHT22;14477;51.038;4.588;2023-05-29T12:43:06;28.50;42.10
26909;DHT22;14477;51.038;4.588;2023-05-29T12:45:34;28.50;41.90
26909;DHT22;14477;51.038;4.588;2023-05-29T12:48:07;28.40;42.00
26909;DHT22;14477;51.038;4.588;2023-05-29T12:50:34;28.50;42.20
26909;DHT22;14477;51.038;4.588;2023-05-29T12:55:31;28.60;42.60
26909;DHT22;14477;51.038;4.588;2023-05-29T12:58:15;28.70;42.10
26909;DHT22;14477;51.038;4.588;2023-05-29T13:00:46;28.70;41.30
26909;DHT22;14477;51.038;4.588;2023-05-29T13:03:11;28.70;41.60
26909;DHT22;14477;51.038;4.588;2023-05-29T13:05:38;28.70;41.20
26909;DHT22;14477;51.038;4.588;2023-05-29T13:08:04;28.60;41.00
26909;DHT22;14477;51.038;4.588;2023-05-29T13:10:34;28.60;41.00
26909;DHT22;14477;51.038;4.588;2023-05-29T13:13:00;28.50;41.10
26909;DHT22;14477;51.038;4.588;2023-05-29T13:15:26;28.50;41.60
26909;DHT22;14477;51.038;4.588;2023-05-29T13:17:52;28.50;41.30
26909;DHT22;14477;51.038;4.588;2023-05-29T13:20:20;28.40;41.50
26909;DHT22;14477;51.038;4.588;2023-05-29T13:22:47;28.50;41.60
26909;DHT22;14477;51.038;4.588;2023-05-29T13:25:15;28.50;41.40
26909;DHT22;14477;51.038;4.588;2023-05-29T13:27:45;28.40;41.00
26909;DHT22;14477;51.038;4.588;2023-05-29T13:30:12;28.40;41.00
26909;DHT22;14477;51.038;4.588;2023-05-29T13:32:38;28.20;41.20
26909;DHT22;14477;51.038;4.588;2023-05-29T13:35:05;28.20;41.40
26909;DHT22;14477;51.038;4.588;2023-05-29T13:37:31;28.20;41.30
26909;DHT22;14477;51.038;4.588;2023-05-29T13:39:57;28.20;41.40
26909;DHT22;14477;51.038;4.588;2023-05-29T13:42:23;28.20;41.40
26909;DHT22;14477;51.038;4.588;2023-05-29T13:44:49;28.20;41.90
26909;DHT22;14477;51.038;4.588;2023-05-29T13:47:16;28.20;41.10
26909;DHT22;14477;51.038;4.588;2023-05-29T13:49:42;28.10;41.10
26909;DHT22;14477;51.038;4.588;2023-05-29T13:52:08;28.10;40.80
26909;DHT22;14477;51.038;4.588;2023-05-29T13:54:34;28.00;40.90
26909;DHT22;14477;51.038;4.588;2023-05-29T13:57:05;27.90;40.90
26909;DHT22;14477;51.038;4.588;2023-05-29T13:59:34;27.80;41.00
26909;DHT22;14477;51.038;4.588;2023-05-29T14:02:01;27.80;40.90
26909;DHT22;14477;51.038;4.588;2023-05-29T14:04:29;27.80;41.40
26909;DHT22;14477;51.038;4.588;2023-05-29T14:06:55;27.80;41.20
26909;DHT22;14477;51.038;4.588;2023-05-29T14:09:22;27.70;41.10
26909;DHT22;14477;51.038;4.588;2023-05-29T14:11:57;27.70;40.90
26909;DHT22;14477;51.038;4.588;2023-05-29T14:14:23;27.60;40.90
26909;DHT22;14477;51.038;4.588;2023-05-29T14:16:49;27.50;41.20
26909;DHT22;14477;51.038;4.588;2023-05-29T14:19:15;27.50;41.50
26909;DHT22;14477;51.038;4.588;2023-05-29T14:21:41;27.40;41.30
26909;DHT22;14477;51.038;4.588;2023-05-29T14:24:07;27.40;41.30
26909;DHT22;14477;51.038;4.588;2023-05-29T14:26:33;27.30;41.30
26909;DHT22;14477;51.038;4.588;2023-05-29T14:28:59;27.30;41.30
26909;DHT22;14477;51.038;4.588;2023-05-29T14:31:25;27.20;41.20
26909;DHT22;14477;51.038;4.588;2023-05-29T14:33:50;27.20;41.30
26909;DHT22;14477;51.038;4.588;2023-05-29T14:36:16;27.10;41.30
26909;DHT22;14477;51.038;4.588;2023-05-29T14:38:42;27.00;41.20
26909;DHT22;14477;51.038;4.588;2023-05-29T14:41:10;26.90;41.40
26909;DHT22;14477;51.038;4.588;2023-05-29T14:43:38;26.90;41.60
26909;DHT22;14477;51.038;4.588;2023-05-29T14:46:04;26.80;41.40
26909;DHT22;14477;51.038;4.588;2023-05-29T14:48:30;26.80;41.40
26909;DHT22;14477;51.038;4.588;2023-05-29T14:50:56;26.70;41.10
26909;DHT22;14477;51.038;4.588;2023-05-29T14:53:22;26.50;41.00
26909;DHT22;14477;51.038;4.588;2023-05-29T14:55:49;26.40;41.20
26909;DHT22;14477;51.038;4.588;2023-05-29T14:58:15;26.30;41.20
26909;DHT22;14477;51.038;4.588;2023-05-29T15:00:41;26.20;41.10
26909;DHT22;14477;51.038;4.588;2023-05-29T15:03:06;26.10;41.40
26909;DHT22;14477;51.038;4.588;2023-05-29T15:05:32;26.00;41.50
26909;DHT22;14477;51.038;4.588;2023-05-29T15:07:58;26.00;41.40
26909;DHT22;14477;51.038;4.588;2023-05-29T15:10:26;25.90;41.10
26909;DHT22;14477;51.038;4.588;2023-05-29T15:12:52;25.90;41.30
26909;DHT22;14477;51.038;4.588;2023-05-29T15:15:26;25.90;41.60
26909;DHT22;14477;51.038;4.588;2023-05-29T15:17:53;25.90;41.60
26909;DHT22;14477;51.038;4.588;2023-05-29T15:20:25;25.90;41.40
26909;DHT22;14477;51.038;4.588;2023-05-29T15:22:52;25.90;41.00
26909;DHT22;14477;51.038;4.588;2023-05-29T15:25:19;25.90;40.80
26909;DHT22;14477;51.038;4.588;2023-05-29T15:27:46;25.80;40.70
26909;DHT22;14477;51.038;4.588;2023-05-29T15:30:16;25.70;40.70
26909;DHT22;14477;51.038;4.588;2023-05-29T15:32:43;25.60;40.90
26909;DHT22;14477;51.038;4.588;2023-05-29T15:35:10;25.50;41.10
26909;DHT22;14477;51.038;4.588;2023-05-29T15:37:37;25.50;41.10
26909;DHT22;14477;51.038;4.588;2023-05-29T15:40:03;25.40;41.00
26909;DHT22;14477;51.038;4.588;2023-05-29T15:42:31;25.30;41.30
26909;DHT22;14477;51.038;4.588;2023-05-29T15:44:57;25.30;41.30
26909;DHT22;14477;51.038;4.588;2023-05-29T15:47:23;25.20;41.40
26909;DHT22;14477;51.038;4.588;2023-05-29T15:49:49;25.20;41.30
26909;DHT22;14477;51.038;4.588;2023-05-29T15:52:15;25.00;40.80
26909;DHT22;14477;51.038;4.588;2023-05-29T15:54:41;25.00;41.00
26909;DHT22;14477;51.038;4.588;2023-05-29T15:57:07;24.90;41.20
26909;DHT22;14477;51.038;4.588;2023-05-29T15:59:33;24.80;41.40
26909;DHT22;14477;51.038;4.588;2023-05-29T16:01:59;24.80;41.60
26909;DHT22;14477;51.038;4.588;2023-05-29T16:04:26;24.70;41.40
26909;DHT22;14477;51.038;4.588;2023-05-29T16:06:52;24.70;41.40
26909;DHT22;14477;51.038;4.588;2023-05-29T16:09:18;24.60;41.50
26909;DHT22;14477;51.038;4.588;2023-05-29T16:11:45;24.50;41.70
26909;DHT22;14477;51.038;4.588;2023-05-29T16:14:10;24.50;41.80
26909;DHT22;14477;51.038;4.588;2023-05-29T16:16:37;24.50;41.80
26909;DHT22;14477;51.038;4.588;2023-05-29T16:19:06;24.50;42.10
26909;DHT22;14477;51.038;4.588;2023-05-29T16:21:32;24.50;42.10
26909;DHT22;14477;51.038;4.588;2023-05-29T16:23:59;24.60;42.40
26909;DHT22;14477;51.038;4.588;2023-05-29T16:26:27;24.60;41.70
26909;DHT22;14477;51.038;4.588;2023-05-29T16:28:58;24.60;41.60
26909;DHT22;14477;51.038;4.588;2023-05-29T16:31:25;24.60;41.60
26909;DHT22;14477;51.038;4.588;2023-05-29T16:33:51;24.60;41.60